Time;durP1;ratioP1;P1;durP2;ratioP2;P2;SDS_P1;SDS_P2;PMS_P1;PMS_P2;Temp;Humidity;BMP_temperature;BMP_pressure;BME280_temperature;BME280_humidity;BME280_pressure;Samples;Min_cycle;Max_cycle;Signal;HPM_P1;HPM_P2
2022/11/17 00:04:30;;;;;;;12.15;4.70;;;;;;;12.28;73.93;98470.59;10226981;29;20048;-67
2022/11/17 00:09:31;;;;;;;14.90;4.30;;;;;;;12.22;74.70;98458.91;10230767;28;20081;-66
2022/11/17 00:14:38;;;;;;;7.30;3.80;;;;;;;12.22;74.32;98445.44;10225165;29;20067;-66
2022/11/17 00:25:00;;;;;;;5.47;2.63;;;;;;;12.16;74.71;98438.28;10224043;28;20047;-68
2022/11/17 00:30:01;;;;;;;9.75;2.40;;;;;;;12.17;74.71;98431.84;10226610;28;20138;-67
2022/11/17 00:35:04;;;;;;;9.90;2.42;;;;;;;12.14;75.13;98434.19;10206766;29;20039;-67
2022/11/17 00:40:06;;;;;;;10.23;3.58;;;;;;;12.12;75.38;98425.50;10223782;29;20062;-66
2022/11/17 00:45:08;;;;;;;9.02;2.55;;;;;;;12.01;75.57;98422.59;10227537;29;20067;-66
2022/11/17 00:50:09;;;;;;;4.28;2.33;;;;;;;11.95;75.77;98411.91;10230872;28;20071;-65
2022/11/17 00:55:11;;;;;;;7.43;2.75;;;;;;;12.04;75.24;98392.47;10227609;28;20055;-67
2022/11/17 01:00:13;;;;;;;9.20;2.85;;;;;;;12.13;75.62;98381.38;10223605;28;20043;-65
2022/11/17 01:05:14;;;;;;;6.18;2.28;;;;;;;12.15;75.55;98360.41;10224814;28;20139;-67
2022/11/17 01:10:15;;;;;;;6.97;2.35;;;;;;;12.20;75.05;98355.94;10224843;28;20059;-67
2022/11/17 01:15:17;;;;;;;9.00;2.33;;;;;;;12.17;74.92;98356.44;10228835;28;20052;-68
2022/11/17 01:20:18;;;;;;;5.65;2.25;;;;;;;12.14;74.82;98345.28;10228485;28;20086;-67
2022/11/17 01:25:20;;;;;;;7.72;2.15;;;;;;;12.15;75.15;98341.56;10223230;28;20071;-66
2022/11/17 01:30:21;;;;;;;4.22;1.77;;;;;;;12.19;75.08;98330.06;10231066;28;20043;-67
2022/11/17 01:35:23;;;;;;;5.00;1.98;;;;;;;12.16;74.83;98327.84;10227366;28;20043;-67
2022/11/17 01:40:24;;;;;;;4.38;1.45;;;;;;;12.13;75.21;98304.09;10218198;28;20079;-67
2022/11/17 01:45:25;;;;;;;3.85;1.35;;;;;;;12.15;75.47;98285.81;10228455;28;20051;-68
2022/11/17 01:50:34;;;;;;;4.90;1.02;;;;;;;12.17;75.11;98280.19;10222562;29;20049;-65
2022/11/17 01:55:42;;;;;;;6.97;1.17;;;;;;;12.12;74.98;98262.03;10220596;29;20047;-66
2022/11/17 02:00:45;;;;;;;3.50;1.58;;;;;;;12.04;75.44;98257.84;10224144;28;20071;-65
2022/11/17 02:05:56;;;;;;;5.13;1.02;;;;;;;11.99;75.86;98246.97;10218280;28;20525;-64
2022/11/17 02:11:01;;;;;;;2.50;0.95;;;;;;;11.91;75.52;98239.28;10224134;28;20517;-64
2022/11/17 02:16:03;;;;;;;4.30;0.90;;;;;;;11.85;76.00;98230.22;10219601;29;20070;-65
2022/11/17 02:21:32;;;;;;;4.05;0.90;;;;;;;11.92;75.72;98229.31;10207653;29;20043;-64
2022/11/17 02:27:09;;;;;;;6.05;1.20;;;;;;;11.74;75.81;98232.94;10223232;28;20078;-64
2022/11/17 02:32:42;;;;;;;5.50;1.35;;;;;;;11.73;76.06;98223.22;10225820;28;20107;-64
2022/11/17 02:38:06;;;;;;;4.38;1.00;;;;;;;11.74;76.30;98208.72;10245736;28;20052;-65
2022/11/17 02:48:38;;;;;;;4.90;1.42;;;;;;;11.70;76.13;98201.09;10245041;28;20074;-63
2022/11/17 02:53:40;;;;;;;4.85;1.33;;;;;;;11.68;76.49;98192.44;10230724;28;20336;-62
2022/11/17 02:58:42;;;;;;;8.35;1.30;;;;;;;11.64;77.15;98182.41;10223842;28;20514;-62
2022/11/17 03:04:21;;;;;;;5.78;1.05;;;;;;;11.64;76.74;98187.78;10223872;28;20968;-63
2022/11/17 03:09:28;;;;;;;2.58;1.02;;;;;;;11.61;76.70;98186.38;10214346;29;20063;-62
2022/11/17 03:14:46;;;;;;;4.78;1.15;;;;;;;11.58;77.33;98159.94;10232071;29;20086;-62
2022/11/17 03:19:55;;;;;;;;;;;;;;;11.55;77.04;98140.75;10233379;28;20070;-63
2022/11/17 03:25:03;;;;;;;3.88;1.20;;;;;;;11.47;77.39;98137.41;10241434;28;19965;-62
2022/11/17 03:30:07;;;;;;;4.63;1.02;;;;;;;11.33;77.99;98138.69;10230764;28;20083;-62
2022/11/17 03:35:20;;;;;;;2.10;1.33;;;;;;;11.29;78.08;98141.03;10229492;29;20049;-61
2022/11/17 03:40:31;;;;;;;4.35;1.33;;;;;;;11.21;78.49;98119.06;10229134;28;20051;-62
2022/11/17 03:45:51;;;;;;;3.70;1.08;;;;;;;11.23;78.62;98109.69;10229893;28;20135;-62
2022/11/17 03:51:14;;;;;;;3.35;1.02;;;;;;;11.27;78.62;98112.72;10230177;29;20131;-64
2022/11/17 03:56:38;;;;;;;2.60;1.25;;;;;;;11.08;78.97;98106.69;10224404;28;20138;-64
2022/11/17 04:01:40;;;;;;;5.75;1.10;;;;;;;11.22;78.74;98110.75;10222697;29;20075;-65
2022/11/17 04:06:42;;;;;;;2.50;1.23;;;;;;;11.26;78.57;98098.47;10228276;28;20169;-63
2022/11/17 04:17:03;;;;;;;2.83;0.82;;;;;;;11.37;78.24;98096.00;10225866;28;20379;-63
2022/11/17 04:22:05;;;;;;;4.88;1.10;;;;;;;11.48;78.14;98089.78;10229655;28;20054;-63
2022/11/17 04:32:27;;;;;;;2.28;0.77;;;;;;;11.42;78.06;98088.03;10225299;28;20560;-63
2022/11/17 04:37:28;;;;;;;4.03;1.10;;;;;;;11.35;78.18;98092.72;10221872;29;20450;-64
2022/11/17 04:42:30;;;;;;;4.10;1.40;;;;;;;11.40;78.48;98095.53;10224500;28;20051;-64
2022/11/17 04:47:31;;;;;;;6.65;1.52;;;;;;;11.29;78.89;98098.00;10223969;29;20126;-64
2022/11/17 04:52:32;;;;;;;2.63;0.90;;;;;;;11.35;78.37;98100.78;10220376;29;20137;-64
2022/11/17 04:57:34;;;;;;;4.50;1.73;;;;;;;11.44;78.19;98091.31;10225900;28;20135;-65
2022/11/17 05:02:35;;;;;;;3.13;1.35;;;;;;;11.62;77.92;98082.25;10225977;28;20087;-65
2022/11/17 05:07:37;;;;;;;3.90;1.70;;;;;;;11.74;77.61;98072.25;10227224;28;20074;-63
2022/11/17 05:17:58;;;;;;;6.07;1.67;;;;;;;11.64;78.46;98078.25;10226543;28;21280;-64
2022/11/17 05:28:20;;;;;;;2.55;1.83;;;;;;;11.49;79.07;98070.72;10233378;28;20508;-66
2022/11/17 05:33:21;;;;;;;9.38;1.70;;;;;;;11.46;78.93;98091.88;10231439;28;20102;-65
2022/11/17 05:38:23;;;;;;;1.95;1.20;;;;;;;11.37;79.22;98086.03;10223211;28;20053;-65
2022/11/17 05:43:24;;;;;;;7.82;3.22;;;;;;;11.57;78.69;98095.59;10217318;28;20054;-64
2022/11/17 05:48:25;;;;;;;9.65;2.10;;;;;;;11.27;79.52;98085.84;10226556;29;20130;-66
2022/11/17 05:53:28;;;;;;;10.70;2.45;;;;;;;11.34;79.39;98093.78;10226411;28;20125;-65
2022/11/17 05:58:32;;;;;;;5.15;2.67;;;;;;;11.05;80.32;98109.81;10223657;28;20128;-63
2022/11/17 06:03:40;;;;;;;8.35;3.17;;;;;;;11.26;79.75;98100.34;10221802;28;20051;-63
2022/11/17 06:08:43;;;;;;;7.45;2.75;;;;;;;11.46;79.66;98091.88;10208753;28;20525;-63
2022/11/17 06:13:44;;;;;;;12.07;3.88;;;;;;;11.50;79.96;98085.78;10228520;28;20160;-64
2022/11/17 06:19:01;;;;;;;9.32;3.60;;;;;;;11.51;79.61;98065.06;10225443;28;20103;-64
2022/11/17 06:24:05;;;;;;;5.95;2.50;;;;;;;11.48;80.05;98052.91;10230478;28;20151;-65
2022/11/17 06:29:08;;;;;;;5.20;2.92;;;;;;;11.58;80.14;98056.88;10227179;28;20043;-64
2022/11/17 06:34:11;;;;;;;6.53;2.63;;;;;;;11.61;79.58;98068.00;10207609;28;20581;-65
2022/11/17 06:39:12;;;;;;;7.40;3.08;;;;;;;11.65;79.86;98061.06;10222586;28;20833;-65
2022/11/17 06:44:13;;;;;;;5.40;2.78;;;;;;;11.71;80.04;98054.72;10258972;23;20051;-89
2022/11/17 06:59:50;;;;;;;4.43;2.50;;;;;;;11.81;79.84;98045.19;11738343;23;20058;-64
2022/11/17 07:04:52;;;;;;;7.95;3.90;;;;;;;11.81;79.94;98037.09;10212150;29;20495;-63
2022/11/17 07:09:53;;;;;;;7.40;3.05;;;;;;;11.87;80.19;98036.97;10216892;29;20086;-63
2022/11/17 07:14:54;;;;;;;9.38;2.92;;;;;;;11.82;80.34;98036.06;10223963;29;20498;-63
2022/11/17 07:19:56;;;;;;;9.90;2.97;;;;;;;11.82;80.29;98028.00;10215250;29;20066;-64
2022/11/17 07:24:57;;;;;;;7.40;3.55;;;;;;;11.80;80.75;98028.22;10217495;29;20066;-64
2022/11/17 07:29:58;;;;;;;6.95;3.42;;;;;;;11.97;80.49;98028.31;10213727;29;20583;-62
2022/11/17 07:35:01;;;;;;;7.28;2.63;;;;;;;11.95;80.71;98035.81;10376172;23;20067;-64
2022/11/17 07:40:02;;;;;;;8.02;2.90;;;;;;;12.02;80.72;98027.56;10260842;29;20047;-64
2022/11/17 07:45:04;;;;;;;3.13;1.73;;;;;;;12.00;80.41;98025.09;10249351;29;20043;-65
2022/11/17 07:50:06;;;;;;;5.10;1.48;;;;;;;12.12;81.00;98016.97;10220133;29;20167;-65
2022/11/17 07:55:07;;;;;;;2.33;1.65;;;;;;;12.18;80.92;98013.28;10220938;28;20044;-65
2022/11/17 08:00:10;;;;;;;2.45;1.45;;;;;;;12.37;80.52;98013.88;10220582;29;20087;-66
2022/11/17 08:05:12;;;;;;;2.20;1.30;;;;;;;12.61;80.62;98013.69;10237673;29;20047;-64
2022/11/17 08:10:14;;;;;;;9.52;3.70;;;;;;;12.80;80.86;98006.97;10230680;29;20059;-62
2022/11/17 08:15:15;;;;;;;3.05;2.00;;;;;;;13.02;80.97;98009.69;10223151;29;20048;-63
2022/11/17 08:20:17;;;;;;;2.50;0.50;;;;;;;12.76;81.24;98019.31;10232595;29;20099;-62
2022/11/17 08:25:20;;;;;;;5.32;0.60;;;;;;;12.78;81.35;98016.38;10223067;28;20063;-64
2022/11/17 08:30:23;;;;;;;2.33;0.40;;;;;;;12.73;81.30;98016.28;10202351;29;20483;-64
2022/11/17 08:35:25;;;;;;;4.53;0.82;;;;;;;12.62;81.40;98016.16;10210739;29;20140;-64
2022/11/17 08:40:26;;;;;;;2.58;1.25;;;;;;;12.64;81.58;98011.34;10213356;29;20075;-65
2022/11/17 08:45:28;;;;;;;2.78;0.40;;;;;;;12.62;81.49;97999.16;10197356;28;20558;-65
2022/11/17 08:50:29;;;;;;;4.78;0.95;;;;;;;12.64;81.26;98002.44;10216758;29;20055;-65
2022/11/17 08:55:36;;;;;;;6.70;0.50;;;;;;;12.76;81.15;97995.06;10197476;29;20565;-69
2022/11/17 09:00:41;;;;;;;5.82;0.38;;;;;;;12.72;81.05;97993.91;10211520;28;20051;-68
2022/11/17 09:05:46;;;;;;;4.05;0.60;;;;;;;12.78;80.78;97998.31;10209896;29;20060;-67
2022/11/17 09:10:50;;;;;;;4.10;0.43;;;;;;;12.84;80.86;97996.50;10214379;28;20051;-67
2022/11/17 09:15:51;;;;;;;5.63;0.30;;;;;;;12.91;80.68;98010.59;10213544;28;20067;-68
2022/11/17 09:21:01;;;;;;;2.38;0.30;;;;;;;12.92;80.43;98031.13;10193754;29;20085;-68
2022/11/17 09:26:08;;;;;;;5.93;0.40;;;;;;;12.96;80.24;98045.75;10201769;28;20139;-65
2022/11/17 09:31:15;;;;;;;3.00;0.40;;;;;;;13.04;80.20;98060.69;10210042;29;20143;-68
2022/11/17 09:36:17;;;;;;;6.13;0.60;;;;;;;13.06;79.82;98080.13;10207963;29;20130;-68
2022/11/17 09:41:30;;;;;;;4.25;0.60;;;;;;;13.06;80.03;98094.44;10209050;29;20066;-68
2022/11/17 09:47:00;;;;;;;8.00;1.65;;;;;;;12.86;80.45;98094.16;10209331;29;20043;-72
2022/11/17 09:52:14;;;;;;;4.93;1.25;;;;;;;12.76;80.80;98094.00;10211322;29;20043;-71
2022/11/17 09:57:24;;;;;;;7.10;0.60;;;;;;;12.78;80.43;98091.88;10179152;29;20111;-71
2022/11/17 10:02:26;;;;;;;3.63;0.68;;;;;;;12.63;81.24;98112.09;10199067;28;20495;-71
2022/11/17 10:07:30;;;;;;;6.10;0.70;;;;;;;12.66;81.56;98121.59;10200503;29;20052;-71
2022/11/17 10:12:41;;;;;;;5.03;1.08;;;;;;;12.55;81.54;98117.09;10186021;29;20047;-72
2022/11/17 10:17:42;;;;;;;3.03;0.60;;;;;;;12.61;82.30;98118.81;10211427;29;20103;-63
2022/11/17 10:22:45;;;;;;;8.38;0.68;;;;;;;12.78;81.54;98116.13;10233352;29;20043;-65
2022/11/17 10:27:52;;;;;;;7.10;1.10;;;;;;;12.69;82.08;98115.69;10200922;28;20428;-70
2022/11/17 10:32:55;;;;;;;4.77;0.53;;;;;;;12.62;82.03;98104.28;10218268;29;20031;-70
2022/11/17 10:38:13;;;;;;;6.50;0.52;;;;;;;12.49;82.28;98127.78;10295751;23;20051;-88
2022/11/17 10:43:18;;;;;;;8.07;0.70;;;;;;;12.45;82.46;98117.75;10245921;28;20051;-88
2022/11/17 10:48:33;;;;;;;6.60;0.45;;;;;;;12.70;81.99;98123.56;10267067;28;20117;-88
2022/11/17 10:53:40;;;;;;;8.48;0.57;;;;;;;12.92;81.83;98114.72;10291936;28;20054;-90
2022/11/17 10:59:08;;;;;;;5.38;0.65;;;;;;;13.00;81.95;98108.91;10300106;28;20063;-89
2022/11/17 11:04:34;;;;;;;3.45;0.57;;;;;;;12.95;82.06;98108.81;10307732;28;20047;-90
2022/11/17 11:09:46;;;;;;;3.97;0.40;;;;;;;13.12;81.64;98103.41;10276548;28;20101;-89
2022/11/17 11:14:53;;;;;;;8.60;0.50;;;;;;;13.26;81.66;98096.59;10285421;28;20051;-91
2022/11/17 11:19:56;;;;;;;7.15;0.47;;;;;;;13.28;81.53;98094.47;10277543;28;20107;-89
2022/11/17 11:25:04;;;;;;;5.93;0.50;;;;;;;13.38;81.04;98104.59;10264685;28;20027;-88
2022/11/17 11:30:15;;;;;;;7.35;0.60;;;;;;;13.52;80.13;98096.16;10283374;28;20043;-89
2022/11/17 11:35:34;;;;;;;7.57;0.68;;;;;;;13.69;79.93;98111.22;10275372;28;20062;-91
2022/11/17 11:40:50;;;;;;;9.90;0.95;;;;;;;13.86;79.34;98113.84;10262959;23;20086;-65
2022/11/17 11:46:06;;;;;;;5.55;0.60;;;;;;;13.96;78.64;98121.25;10227019;28;20053;-68
2022/11/17 11:51:07;;;;;;;6.55;0.85;;;;;;;13.93;78.71;98139.84;10230989;28;20117;-68
2022/11/17 11:56:17;;;;;;;3.95;0.40;;;;;;;14.03;78.05;98142.66;10189456;28;20070;-65
2022/11/17 12:01:21;;;;;;;4.75;0.68;;;;;;;14.09;78.11;98138.94;10191806;29;20150;-67
2022/11/17 12:06:40;;;;;;;1.77;0.40;;;;;;;14.06;77.79;98152.97;10189168;29;20582;-68
2022/11/17 12:12:01;;;;;;;7.15;0.40;;;;;;;14.02;78.09;98155.34;10193159;29;20131;-68
2022/11/17 12:17:17;;;;;;;4.10;0.40;;;;;;;14.09;77.79;98147.84;10184137;29;20061;-69
2022/11/17 12:22:27;;;;;;;4.53;0.55;;;;;;;14.28;77.48;98144.81;10195259;28;20086;-67
2022/11/17 12:27:32;;;;;;;4.28;0.35;;;;;;;14.19;77.43;98143.63;10180357;29;20075;-66
2022/11/17 12:32:42;;;;;;;7.07;0.65;;;;;;;14.33;77.06;98141.34;10185619;29;20102;-67
2022/11/17 12:37:44;;;;;;;4.78;0.40;;;;;;;14.46;76.75;98141.75;10191071;28;20432;-65
2022/11/17 12:43:14;;;;;;;5.55;0.52;;;;;;;14.59;76.67;98156.78;10191588;28;20143;-67
2022/11/17 12:48:16;;;;;;;3.78;0.32;;;;;;;14.75;76.39;98157.75;10180951;28;20111;-66
2022/11/17 12:53:36;;;;;;;;;;;;;;;14.87;77.35;98152.16;10187140;28;20047;-66
2022/11/17 12:59:02;;;;;;;2.38;0.40;;;;;;;15.05;76.18;98162.56;10192321;29;19942;-66
2022/11/17 13:04:10;;;;;;;2.67;0.35;;;;;;;15.15;75.68;98163.72;10183602;28;20048;-66
2022/11/17 13:09:26;;;;;;;1.48;0.40;;;;;;;15.20;74.92;98161.84;10175180;28;20052;-66
2022/11/17 13:14:27;;;;;;;2.92;0.30;;;;;;;15.20;74.89;98167.25;10172013;28;20104;-66
2022/11/17 13:19:37;;;;;;;0.25;0.20;;;;;;;14.99;74.31;98177.13;10187509;28;20228;-67
2022/11/17 13:24:41;;;;;;;1.52;0.20;;;;;;;14.86;74.56;98172.16;10186462;28;20055;-68
2022/11/17 13:29:43;;;;;;;1.77;0.20;;;;;;;14.73;74.42;98181.53;10184329;29;20051;-67
2022/11/17 13:34:52;;;;;;;2.15;0.10;;;;;;;14.76;74.10;98182.88;10173651;29;20056;-66
2022/11/17 13:39:59;;;;;;;2.80;0.20;;;;;;;14.83;73.92;98192.44;10188844;28;20112;-66
2022/11/17 13:45:04;;;;;;;5.07;0.35;;;;;;;14.83;74.05;98194.28;10193486;28;20181;-66
2022/11/17 13:50:24;;;;;;;3.20;0.20;;;;;;;14.84;74.07;98193.25;10185209;28;20054;-65
2022/11/17 13:55:27;;;;;;;2.33;0.30;;;;;;;14.81;74.65;98202.69;10187924;28;20068;-66
2022/11/17 14:00:30;;;;;;;2.80;0.52;;;;;;;14.83;74.02;98207.81;10182535;29;20203;-66
2022/11/17 14:05:32;;;;;;;2.63;0.30;;;;;;;14.76;74.26;98205.34;10182474;29;20075;-65
2022/11/17 14:10:36;;;;;;;3.13;0.30;;;;;;;14.75;74.05;98200.19;10183411;28;20103;-65
2022/11/17 14:15:41;;;;;;;3.40;0.30;;;;;;;14.77;73.97;98200.72;10182684;29;20061;-64
2022/11/17 14:20:43;;;;;;;1.80;0.20;;;;;;;14.64;74.31;98215.50;10185811;29;20071;-65
2022/11/17 14:25:50;;;;;;;1.88;0.20;;;;;;;14.58;74.32;98206.53;10183053;28;20083;-65
2022/11/17 14:30:56;;;;;;;2.58;0.15;;;;;;;14.53;74.08;98208.31;10187615;28;20052;-66
2022/11/17 14:35:58;;;;;;;2.85;0.43;;;;;;;14.46;74.22;98208.53;10184038;29;20043;-66
2022/11/17 14:40:59;;;;;;;8.40;0.82;;;;;;;14.50;73.87;98216.94;10184305;29;20551;-66
2022/11/17 14:46:01;;;;;;;5.78;0.30;;;;;;;14.43;73.97;98214.44;10182889;28;20052;-66
2022/11/17 14:51:03;;;;;;;1.67;0.50;;;;;;;14.26;74.47;98214.53;10167762;28;20055;-66
2022/11/17 14:56:09;;;;;;;3.88;0.30;;;;;;;14.06;74.66;98197.00;10168495;29;20499;-66
2022/11/17 15:01:14;;;;;;;4.20;0.35;;;;;;;14.06;74.65;98186.19;10175329;29;20637;-67
2022/11/17 15:06:16;;;;;;;8.57;0.50;;;;;;;13.36;76.53;98247.06;10182200;29;20079;-72
2022/11/17 15:11:21;;;;;;;3.35;0.40;;;;;;;12.62;78.69;98239.06;10500534;23;20130;-89
2022/11/17 15:16:23;;;;;;;3.45;0.30;;;;;;;12.24;78.62;98235.06;10298756;28;20037;-88
2022/11/17 15:21:24;;;;;;;0.85;0.63;;;;;;;11.92;79.24;98237.38;10248597;23;20541;-67
2022/11/17 15:26:26;;;;;;;3.38;0.15;;;;;;;11.79;78.91;98244.63;10214864;29;20055;-67
2022/11/17 15:31:28;;;;;;;4.97;0.40;;;;;;;11.66;79.20;98252.94;10287454;23;20039;-88
2022/11/17 15:36:30;;;;;;;2.95;0.30;;;;;;;11.65;78.83;98259.38;10241657;28;20046;-87
2022/11/17 15:41:32;;;;;;;2.78;0.35;;;;;;;11.47;79.35;98257.63;10238812;28;20050;-88
2022/11/17 15:46:34;;;;;;;4.18;0.68;;;;;;;11.49;79.62;98261.72;10250698;28;20043;-87
2022/11/17 16:02:10;;;;;;;2.27;0.90;;;;;;;11.69;79.63;98274.03;12398451;23;20245;-65
2022/11/17 16:07:11;;;;;;;4.43;0.68;;;;;;;11.80;79.52;98264.28;10231999;28;20131;-62
2022/11/17 16:12:12;;;;;;;4.38;0.80;;;;;;;11.95;79.04;98271.91;10211535;29;20059;-66
2022/11/17 16:17:14;;;;;;;6.63;1.10;;;;;;;11.90;79.61;98259.16;10242031;29;20035;-65
2022/11/17 16:22:15;;;;;;;7.00;1.95;;;;;;;11.98;79.42;98257.97;10239973;29;20131;-67
2022/11/17 16:27:17;;;;;;;11.45;1.40;;;;;;;12.06;79.33;98263.00;10229019;29;20078;-66
2022/11/17 16:32:18;;;;;;;7.03;1.17;;;;;;;12.05;79.37;98262.19;10227299;28;20091;-66
2022/11/17 16:37:20;;;;;;;6.43;1.00;;;;;;;11.90;80.08;98278.81;10224081;29;20111;-65
2022/11/17 16:42:21;;;;;;;5.03;0.60;;;;;;;11.84;80.07;98279.72;10227602;29;20133;-65
2022/11/17 16:47:23;;;;;;;5.55;1.75;;;;;;;11.85;80.10;98272.50;10222829;29;20236;-65
2022/11/17 16:52:25;;;;;;;8.80;1.25;;;;;;;11.77;80.53;98275.50;10215964;28;20098;-66
2022/11/17 16:57:27;;;;;;;3.80;0.77;;;;;;;11.78;80.30;98283.34;10180081;29;20143;-66
2022/11/17 17:02:28;;;;;;;9.02;1.13;;;;;;;11.76;79.93;98284.66;10164211;29;20087;-66
2022/11/17 17:07:30;;;;;;;6.35;1.27;;;;;;;11.69;79.73;98299.06;10183350;29;20162;-66
2022/11/17 17:12:32;;;;;;;8.80;0.80;;;;;;;11.65;79.67;98300.56;10183780;29;20099;-65
2022/11/17 17:17:33;;;;;;;8.77;1.15;;;;;;;11.57;79.97;98300.09;10191444;29;20079;-66
2022/11/17 17:22:35;;;;;;;9.38;1.65;;;;;;;11.52;80.07;98309.69;10186200;29;20071;-66
2022/11/17 17:27:36;;;;;;;11.60;2.72;;;;;;;11.48;80.17;98307.69;10185073;29;20067;-66
2022/11/17 17:32:38;;;;;;;14.38;4.28;;;;;;;11.51;80.07;98296.47;10184115;29;20090;-64
2022/11/17 17:37:39;;;;;;;11.88;3.60;;;;;;;11.41;79.94;98309.66;10196606;29;20119;-64
2022/11/17 17:42:41;;;;;;;6.13;2.22;;;;;;;11.37;79.99;98300.44;10193357;29;20099;-65
2022/11/17 17:47:42;;;;;;;6.40;1.80;;;;;;;11.32;79.32;98303.81;10185955;29;20127;-65
2022/11/17 17:52:44;;;;;;;12.80;3.00;;;;;;;11.18;80.05;98294.34;10186492;28;20448;-66
2022/11/17 17:57:45;;;;;;;6.88;1.60;;;;;;;11.09;80.01;98294.63;10195091;29;20044;-66
2022/11/17 18:02:47;;;;;;;9.57;1.63;;;;;;;11.11;80.06;98313.22;10195934;29;20142;-64
2022/11/17 18:07:48;;;;;;;4.28;1.40;;;;;;;11.06;79.72;98324.69;10192863;29;20044;-66
2022/11/17 18:12:50;;;;;;;2.60;0.80;;;;;;;10.96;80.43;98343.25;10186256;29;20490;-64
2022/11/17 18:17:51;;;;;;;6.78;1.00;;;;;;;11.02;80.49;98338.81;10190707;29;20090;-67
2022/11/17 18:22:55;;;;;;;7.50;1.30;;;;;;;11.01;80.54;98347.94;10190948;29;20760;-66
2022/11/17 18:27:56;;;;;;;6.60;1.55;;;;;;;11.00;79.97;98348.97;10178222;29;20100;-66
2022/11/17 18:32:58;;;;;;;9.45;1.33;;;;;;;10.95;80.08;98356.91;10199539;29;20100;-66
2022/11/17 18:38:03;;;;;;;4.38;1.42;;;;;;;10.96;80.24;98351.31;10212172;29;20044;-67
2022/11/17 18:43:04;;;;;;;7.35;2.15;;;;;;;10.91;80.06;98354.66;10181129;29;20082;-67
2022/11/17 18:48:06;;;;;;;4.32;1.40;;;;;;;10.90;79.66;98360.28;10180338;29;20145;-66
2022/11/17 18:53:07;;;;;;;6.07;1.35;;;;;;;10.82;80.00;98355.19;10204703;29;20075;-67
2022/11/17 18:58:09;;;;;;;6.72;1.75;;;;;;;10.77;80.35;98361.25;10212492;29;20051;-68
2022/11/17 19:03:10;;;;;;;6.22;1.80;;;;;;;10.70;80.31;98356.00;10211360;29;20090;-66
2022/11/17 19:08:13;;;;;;;9.18;2.78;;;;;;;10.65;79.91;98365.78;10204119;29;20134;-68
2022/11/17 19:13:15;;;;;;;6.13;3.08;;;;;;;10.67;80.08;98353.75;10198123;29;20603;-66
2022/11/17 19:18:17;;;;;;;7.80;3.00;;;;;;;10.60;79.94;98353.00;10193990;29;20067;-66
2022/11/17 19:23:19;;;;;;;11.50;3.42;;;;;;;10.60;79.78;98349.50;10193366;29;20059;-68
2022/11/17 19:28:20;;;;;;;6.82;3.78;;;;;;;10.56;79.92;98353.69;10192906;29;20052;-68
2022/11/17 19:33:22;;;;;;;9.88;3.85;;;;;;;10.55;79.94;98360.94;10190229;29;20135;-67
2022/11/17 19:38:23;;;;;;;12.43;4.80;;;;;;;10.49;80.06;98368.00;10192431;29;20089;-67
2022/11/17 19:43:25;;;;;;;11.52;3.10;;;;;;;10.55;79.84;98368.97;10199455;29;20162;-68
2022/11/17 19:48:28;;;;;;;7.78;3.33;;;;;;;10.49;79.75;98365.31;10193870;29;20487;-67
2022/11/17 19:53:29;;;;;;;4.90;2.90;;;;;;;10.48;79.79;98376.28;10185846;28;20308;-69
2022/11/17 19:58:31;;;;;;;11.88;2.90;;;;;;;10.58;79.57;98392.69;10204404;29;20143;-67
2022/11/17 20:03:33;;;;;;;9.52;3.33;;;;;;;10.66;79.46;98397.78;10191623;29;20127;-68
2022/11/17 20:08:34;;;;;;;9.75;4.10;;;;;;;10.70;79.32;98406.19;10192689;29;20068;-68
2022/11/17 20:13:37;;;;;;;12.10;4.93;;;;;;;10.72;79.90;98404.09;10193968;29;20054;-67
2022/11/17 20:18:40;;;;;;;13.88;5.43;;;;;;;10.78;79.83;98403.25;10194172;29;20822;-68
2022/11/17 20:23:44;;;;;;;12.70;6.15;;;;;;;10.87;79.70;98396.47;10192108;29;20103;-67
2022/11/17 20:28:46;;;;;;;14.95;6.55;;;;;;;10.87;79.10;98401.88;10183241;29;20134;-67
2022/11/17 20:33:48;;;;;;;14.25;6.78;;;;;;;10.82;78.98;98393.66;10191746;29;20051;-67
2022/11/17 20:38:54;;;;;;;11.10;6.45;;;;;;;10.71;78.60;98400.59;10192572;29;20058;-66
2022/11/17 20:43:57;;;;;;;16.98;7.80;;;;;;;10.63;78.45;98392.84;10191673;29;20095;-68
2022/11/17 20:48:59;;;;;;;15.05;7.07;;;;;;;10.48;78.61;98406.66;10177495;29;20122;-67
2022/11/17 20:54:01;;;;;;;12.02;5.13;;;;;;;10.38;78.31;98417.09;10183168;28;20135;-66
2022/11/17 20:59:02;;;;;;;16.25;6.47;;;;;;;10.28;78.24;98416.75;10187660;29;20127;-66
2022/11/17 21:04:04;;;;;;;10.75;6.70;;;;;;;10.21;78.12;98426.72;10186772;29;20052;-69
2022/11/17 21:09:05;;;;;;;12.30;6.72;;;;;;;10.06;78.31;98435.16;10192756;29;20103;-67
2022/11/17 21:14:09;;;;;;;12.68;6.88;;;;;;;10.03;78.07;98422.16;10174699;29;20044;-67
2022/11/17 21:19:15;;;;;;;18.25;8.25;;;;;;;9.99;78.10;98427.16;10187517;29;20052;-67
2022/11/17 21:24:16;;;;;;;17.38;7.75;;;;;;;9.93;78.28;98436.06;10186367;29;20087;-67
2022/11/17 21:29:18;;;;;;;16.63;8.85;;;;;;;9.93;78.43;98442.28;10197301;29;20134;-67
2022/11/17 21:34:20;;;;;;;16.55;9.75;;;;;;;9.95;78.71;98447.41;10189453;29;20126;-67
2022/11/17 21:39:21;;;;;;;28.80;12.23;;;;;;;10.05;78.65;98455.81;10190975;29;20111;-67
2022/11/17 21:44:22;;;;;;;23.73;9.27;;;;;;;10.11;78.66;98454.94;10184647;29;20060;-67
2022/11/17 21:49:24;;;;;;;17.23;8.77;;;;;;;10.21;79.21;98457.13;10188589;29;20138;-66
2022/11/17 21:54:25;;;;;;;25.50;11.82;;;;;;;10.29;79.25;98462.19;10184346;29;20143;-66
2022/11/17 21:59:26;;;;;;;27.80;14.32;;;;;;;10.38;78.99;98457.38;10189099;29;20070;-66
2022/11/17 22:04:28;;;;;;;25.42;14.57;;;;;;;10.40;79.11;98455.28;10181656;29;20059;-66
2022/11/17 22:09:29;;;;;;;17.27;10.27;;;;;;;10.45;79.35;98466.22;10182698;29;20048;-66
2022/11/17 22:14:31;;;;;;;15.30;8.88;;;;;;;10.51;79.06;98465.31;10194369;29;20151;-67
2022/11/17 22:19:32;;;;;;;19.60;8.73;;;;;;;10.59;79.12;98469.59;10189334;29;20043;-65
2022/11/17 22:24:34;;;;;;;21.40;12.15;;;;;;;10.75;79.36;98467.34;10186160;29;20123;-66
2022/11/17 22:29:35;;;;;;;19.00;10.05;;;;;;;10.75;79.17;98475.41;10187025;29;20130;-66
2022/11/17 22:34:37;;;;;;;24.35;11.25;;;;;;;10.77;79.17;98479.50;10184041;29;20067;-68
2022/11/17 22:39:38;;;;;;;25.67;12.98;;;;;;;10.84;78.99;98477.59;10184836;29;20156;-67
2022/11/17 22:44:39;;;;;;;17.55;12.10;;;;;;;10.93;78.84;98477.28;10183509;29;20055;-66
2022/11/17 22:49:41;;;;;;;18.13;12.40;;;;;;;11.01;79.35;98471.59;10181430;29;20134;-67
2022/11/17 22:54:43;;;;;;;19.40;12.18;;;;;;;11.04;79.18;98484.59;10166053;29;20049;-69
2022/11/17 22:59:44;;;;;;;26.52;15.32;;;;;;;11.08;79.34;98491.16;10173513;29;20052;-67
2022/11/17 23:04:46;;;;;;;29.02;16.98;;;;;;;11.11;78.79;98490.72;10165816;29;20056;-68
2022/11/17 23:09:47;;;;;;;25.05;12.25;;;;;;;11.16;78.95;98487.31;10174020;29;20058;-67
2022/11/17 23:14:48;;;;;;;16.92;10.02;;;;;;;11.18;78.85;98479.88;10189884;29;20072;-67
2022/11/17 23:19:50;;;;;;;25.52;11.10;;;;;;;11.27;79.04;98473.94;10186087;29;20119;-68
2022/11/17 23:24:51;;;;;;;17.85;8.98;;;;;;;11.29;78.78;98484.47;10185214;29;20118;-67
2022/11/17 23:29:52;;;;;;;21.75;12.13;;;;;;;11.35;78.76;98488.13;10177702;29;20040;-66
2022/11/17 23:34:54;;;;;;;19.30;11.68;;;;;;;11.36;79.28;98487.09;10191692;29;20040;-67
2022/11/17 23:39:55;;;;;;;21.92;11.70;;;;;;;11.43;78.92;98490.50;10185741;29;20139;-67
2022/11/17 23:44:57;;;;;;;22.35;11.25;;;;;;;11.50;78.87;98489.38;10185935;29;20459;-66
2022/11/17 23:49:58;;;;;;;23.63;11.20;;;;;;;11.57;79.22;98483.91;10188622;29;20111;-66
2022/11/17 23:54:59;;;;;;;19.33;10.30;;;;;;;11.62;78.80;98488.59;10177407;29;20127;-66
